sensor_id;sensor_type;location;lat;lon;timestamp;P1;durP1;ratioP1;P2;durP2;ratioP2
64011;SDS011;50211;52.768;12.124;2022-10-16T00:00:15;1.85;;;1.17;;
64011;SDS011;50211;52.768;12.124;2022-10-16T00:02:41;4.95;;;1.27;;
64011;SDS011;50211;52.768;12.124;2022-10-16T00:05:07;1.77;;;1.10;;
64011;SDS011;50211;52.768;12.124;2022-10-16T00:07:32;1.17;;;1.05;;
64011;SDS011;50211;52.768;12.124;2022-10-16T00:09:58;3.30;;;1.00;;
64011;SDS011;50211;52.768;12.124;2022-10-16T00:12:23;1.30;;;0.98;;
64011;SDS011;50211;52.768;12.124;2022-10-16T00:14:49;1.95;;;1.10;;
64011;SDS011;50211;52.768;12.124;2022-10-16T00:17:14;1.80;;;1.10;;
64011;SDS011;50211;52.768;12.124;2022-10-16T00:19:40;3.17;;;1.10;;
64011;SDS011;50211;52.768;12.124;2022-10-16T00:22:05;0.90;;;0.90;;
64011;SDS011;50211;52.768;12.124;2022-10-16T00:24:31;1.55;;;1.20;;
64011;SDS011;50211;52.768;12.124;2022-10-16T00:26:56;1.75;;;1.15;;
64011;SDS011;50211;52.768;12.124;2022-10-16T00:29:21;1.20;;;0.93;;
64011;SDS011;50211;52.768;12.124;2022-10-16T00:31:47;1.85;;;1.10;;
64011;SDS011;50211;52.768;12.124;2022-10-16T00:34:12;1.25;;;1.15;;
64011;SDS011;50211;52.768;12.124;2022-10-16T00:36:38;1.05;;;0.95;;
64011;SDS011;50211;52.768;12.124;2022-10-16T00:39:03;0.88;;;0.85;;
64011;SDS011;50211;52.768;12.124;2022-10-16T00:41:29;1.00;;;0.90;;
64011;SDS011;50211;52.768;12.124;2022-10-16T00:43:56;1.45;;;1.35;;
64011;SDS011;50211;52.768;12.124;2022-10-16T00:49:08;1.83;;;1.10;;
64011;SDS011;50211;52.768;12.124;2022-10-16T00:51:37;1.67;;;1.00;;
64011;SDS011;50211;52.768;12.124;2022-10-16T00:54:16;2.00;;;1.15;;
64011;SDS011;50211;52.768;12.124;2022-10-16T00:56:47;2.88;;;0.90;;
64011;SDS011;50211;52.768;12.124;2022-10-16T00:59:30;1.13;;;0.85;;
64011;SDS011;50211;52.768;12.124;2022-10-16T01:02:02;1.63;;;1.08;;
64011;SDS011;50211;52.768;12.124;2022-10-16T01:04:30;1.27;;;0.90;;
64011;SDS011;50211;52.768;12.124;2022-10-16T01:09:42;0.70;;;0.70;;
64011;SDS011;50211;52.768;12.124;2022-10-16T01:14:53;0.90;;;0.90;;
64011;SDS011;50211;52.768;12.124;2022-10-16T01:17:41;1.73;;;0.80;;
64011;SDS011;50211;52.768;12.124;2022-10-16T01:20:19;2.25;;;0.68;;
64011;SDS011;50211;52.768;12.124;2022-10-16T01:22:56;1.13;;;0.80;;
64011;SDS011;50211;52.768;12.124;2022-10-16T01:28:27;2.28;;;0.95;;
64011;SDS011;50211;52.768;12.124;2022-10-16T01:31:01;2.63;;;0.85;;
64011;SDS011;50211;52.768;12.124;2022-10-16T01:33:35;1.45;;;0.70;;
64011;SDS011;50211;52.768;12.124;2022-10-16T01:36:09;1.17;;;0.70;;
64011;SDS011;50211;52.768;12.124;2022-10-16T01:38:40;0.77;;;0.70;;
64011;SDS011;50211;52.768;12.124;2022-10-16T01:41:10;4.82;;;0.88;;
64011;SDS011;50211;52.768;12.124;2022-10-16T01:43:42;0.57;;;0.57;;
64011;SDS011;50211;52.768;12.124;2022-10-16T01:46:11;1.95;;;0.60;;
64011;SDS011;50211;52.768;12.124;2022-10-16T01:48:40;1.95;;;0.90;;
64011;SDS011;50211;52.768;12.124;2022-10-16T01:51:07;1.48;;;0.40;;
64011;SDS011;50211;52.768;12.124;2022-10-16T01:53:35;1.95;;;1.02;;
64011;SDS011;50211;52.768;12.124;2022-10-16T01:56:02;5.13;;;0.80;;
64011;SDS011;50211;52.768;12.124;2022-10-16T01:58:33;1.23;;;0.70;;
64011;SDS011;50211;52.768;12.124;2022-10-16T02:01:03;1.60;;;0.68;;
64011;SDS011;50211;52.768;12.124;2022-10-16T02:03:30;2.70;;;0.80;;
64011;SDS011;50211;52.768;12.124;2022-10-16T02:05:57;4.22;;;1.00;;
64011;SDS011;50211;52.768;12.124;2022-10-16T02:08:24;1.70;;;0.60;;
64011;SDS011;50211;52.768;12.124;2022-10-16T02:10:54;0.75;;;0.68;;
64011;SDS011;50211;52.768;12.124;2022-10-16T02:13:34;1.30;;;0.80;;
64011;SDS011;50211;52.768;12.124;2022-10-16T02:16:06;7.07;;;1.05;;
64011;SDS011;50211;52.768;12.124;2022-10-16T02:18:33;1.42;;;0.60;;
64011;SDS011;50211;52.768;12.124;2022-10-16T02:20:59;1.95;;;0.70;;
64011;SDS011;50211;52.768;12.124;2022-10-16T02:23:36;2.20;;;0.90;;
64011;SDS011;50211;52.768;12.124;2022-10-16T02:26:25;0.65;;;0.60;;
64011;SDS011;50211;52.768;12.124;2022-10-16T02:28:58;2.88;;;0.95;;
64011;SDS011;50211;52.768;12.124;2022-10-16T02:31:29;2.60;;;0.93;;
64011;SDS011;50211;52.768;12.124;2022-10-16T02:33:59;3.08;;;0.85;;
64011;SDS011;50211;52.768;12.124;2022-10-16T02:36:27;1.10;;;1.00;;
64011;SDS011;50211;52.768;12.124;2022-10-16T02:38:54;0.98;;;0.70;;
64011;SDS011;50211;52.768;12.124;2022-10-16T02:41:20;0.90;;;0.70;;
64011;SDS011;50211;52.768;12.124;2022-10-16T02:43:47;2.22;;;1.00;;
64011;SDS011;50211;52.768;12.124;2022-10-16T02:46:12;1.95;;;0.90;;
64011;SDS011;50211;52.768;12.124;2022-10-16T02:48:38;2.67;;;1.35;;
64011;SDS011;50211;52.768;12.124;2022-10-16T02:51:04;2.42;;;0.95;;
64011;SDS011;50211;52.768;12.124;2022-10-16T02:53:30;6.25;;;1.13;;
64011;SDS011;50211;52.768;12.124;2022-10-16T02:55:56;3.42;;;0.95;;
64011;SDS011;50211;52.768;12.124;2022-10-16T02:58:21;3.72;;;0.90;;
64011;SDS011;50211;52.768;12.124;2022-10-16T03:00:47;0.98;;;0.90;;
64011;SDS011;50211;52.768;12.124;2022-10-16T03:03:12;1.88;;;0.80;;
64011;SDS011;50211;52.768;12.124;2022-10-16T03:05:38;2.13;;;0.70;;
64011;SDS011;50211;52.768;12.124;2022-10-16T03:08:03;2.70;;;0.80;;
64011;SDS011;50211;52.768;12.124;2022-10-16T03:10:30;2.90;;;0.80;;
64011;SDS011;50211;52.768;12.124;2022-10-16T03:12:56;3.88;;;0.90;;
64011;SDS011;50211;52.768;12.124;2022-10-16T03:15:21;0.77;;;0.75;;
64011;SDS011;50211;52.768;12.124;2022-10-16T03:17:47;0.80;;;0.73;;
64011;SDS011;50211;52.768;12.124;2022-10-16T03:20:13;1.02;;;0.93;;
64011;SDS011;50211;52.768;12.124;2022-10-16T03:22:38;5.55;;;0.98;;
64011;SDS011;50211;52.768;12.124;2022-10-16T03:25:04;1.60;;;0.82;;
64011;SDS011;50211;52.768;12.124;2022-10-16T03:27:30;2.47;;;1.10;;
64011;SDS011;50211;52.768;12.124;2022-10-16T03:29:55;1.75;;;0.80;;
64011;SDS011;50211;52.768;12.124;2022-10-16T03:32:21;2.58;;;0.85;;
64011;SDS011;50211;52.768;12.124;2022-10-16T03:34:46;2.42;;;0.60;;
64011;SDS011;50211;52.768;12.124;2022-10-16T03:37:12;3.35;;;0.77;;
64011;SDS011;50211;52.768;12.124;2022-10-16T03:39:37;3.95;;;0.85;;
64011;SDS011;50211;52.768;12.124;2022-10-16T03:42:03;1.45;;;0.93;;
64011;SDS011;50211;52.768;12.124;2022-10-16T03:44:28;5.63;;;1.00;;
64011;SDS011;50211;52.768;12.124;2022-10-16T03:46:54;1.23;;;1.10;;
64011;SDS011;50211;52.768;12.124;2022-10-16T03:49:19;0.73;;;0.73;;
64011;SDS011;50211;52.768;12.124;2022-10-16T03:51:44;1.90;;;0.90;;
64011;SDS011;50211;52.768;12.124;2022-10-16T03:54:10;1.45;;;0.80;;
64011;SDS011;50211;52.768;12.124;2022-10-16T03:56:35;2.05;;;1.13;;
64011;SDS011;50211;52.768;12.124;2022-10-16T03:59:01;1.52;;;0.90;;
64011;SDS011;50211;52.768;12.124;2022-10-16T04:01:26;1.10;;;1.00;;
64011;SDS011;50211;52.768;12.124;2022-10-16T04:03:52;0.73;;;0.73;;
64011;SDS011;50211;52.768;12.124;2022-10-16T04:06:17;0.95;;;0.90;;
64011;SDS011;50211;52.768;12.124;2022-10-16T04:08:43;3.05;;;1.02;;
64011;SDS011;50211;52.768;12.124;2022-10-16T04:11:09;6.63;;;1.00;;
64011;SDS011;50211;52.768;12.124;2022-10-16T04:13:35;2.03;;;0.88;;
64011;SDS011;50211;52.768;12.124;2022-10-16T04:16:00;3.08;;;1.00;;
64011;SDS011;50211;52.768;12.124;2022-10-16T04:18:26;2.15;;;1.20;;
64011;SDS011;50211;52.768;12.124;2022-10-16T04:20:52;3.60;;;1.30;;
64011;SDS011;50211;52.768;12.124;2022-10-16T04:23:18;0.93;;;0.85;;
64011;SDS011;50211;52.768;12.124;2022-10-16T04:25:43;1.95;;;1.00;;
64011;SDS011;50211;52.768;12.124;2022-10-16T04:28:09;2.40;;;0.93;;
64011;SDS011;50211;52.768;12.124;2022-10-16T04:30:34;2.40;;;1.13;;
64011;SDS011;50211;52.768;12.124;2022-10-16T04:33:00;1.30;;;1.20;;
64011;SDS011;50211;52.768;12.124;2022-10-16T04:35:25;1.90;;;1.38;;
64011;SDS011;50211;52.768;12.124;2022-10-16T04:37:51;2.63;;;1.30;;
64011;SDS011;50211;52.768;12.124;2022-10-16T04:40:16;2.90;;;1.02;;
64011;SDS011;50211;52.768;12.124;2022-10-16T04:42:42;2.50;;;0.90;;
64011;SDS011;50211;52.768;12.124;2022-10-16T04:45:08;2.03;;;1.33;;
64011;SDS011;50211;52.768;12.124;2022-10-16T04:47:33;1.80;;;1.15;;
64011;SDS011;50211;52.768;12.124;2022-10-16T04:49:59;1.45;;;1.05;;
64011;SDS011;50211;52.768;12.124;2022-10-16T04:52:26;1.23;;;1.10;;
64011;SDS011;50211;52.768;12.124;2022-10-16T04:54:51;1.98;;;1.30;;
64011;SDS011;50211;52.768;12.124;2022-10-16T04:57:17;3.00;;;1.20;;
64011;SDS011;50211;52.768;12.124;2022-10-16T04:59:42;2.17;;;1.23;;
64011;SDS011;50211;52.768;12.124;2022-10-16T05:02:08;1.70;;;1.55;;
64011;SDS011;50211;52.768;12.124;2022-10-16T05:04:33;5.35;;;1.48;;
64011;SDS011;50211;52.768;12.124;2022-10-16T05:06:59;2.75;;;1.17;;
64011;SDS011;50211;52.768;12.124;2022-10-16T05:09:24;1.20;;;1.10;;
64011;SDS011;50211;52.768;12.124;2022-10-16T05:11:50;1.50;;;1.25;;
64011;SDS011;50211;52.768;12.124;2022-10-16T05:14:15;4.72;;;1.55;;
64011;SDS011;50211;52.768;12.124;2022-10-16T05:16:41;1.52;;;1.42;;
64011;SDS011;50211;52.768;12.124;2022-10-16T05:19:06;2.22;;;1.55;;
64011;SDS011;50211;52.768;12.124;2022-10-16T05:21:32;3.10;;;1.42;;
64011;SDS011;50211;52.768;12.124;2022-10-16T05:23:57;1.98;;;1.40;;
64011;SDS011;50211;52.768;12.124;2022-10-16T05:26:23;1.92;;;1.50;;
64011;SDS011;50211;52.768;12.124;2022-10-16T05:28:49;3.08;;;1.60;;
64011;SDS011;50211;52.768;12.124;2022-10-16T05:31:14;4.18;;;1.70;;
64011;SDS011;50211;52.768;12.124;2022-10-16T05:33:40;4.60;;;1.60;;
64011;SDS011;50211;52.768;12.124;2022-10-16T05:36:06;2.08;;;1.80;;
64011;SDS011;50211;52.768;12.124;2022-10-16T05:38:34;1.38;;;1.27;;
64011;SDS011;50211;52.768;12.124;2022-10-16T05:41:00;3.58;;;2.03;;
64011;SDS011;50211;52.768;12.124;2022-10-16T05:43:27;2.22;;;1.45;;
64011;SDS011;50211;52.768;12.124;2022-10-16T05:45:56;2.25;;;1.63;;
64011;SDS011;50211;52.768;12.124;2022-10-16T05:48:23;2.20;;;1.60;;
64011;SDS011;50211;52.768;12.124;2022-10-16T05:50:55;3.65;;;1.63;;
64011;SDS011;50211;52.768;12.124;2022-10-16T05:53:22;3.38;;;1.63;;
64011;SDS011;50211;52.768;12.124;2022-10-16T05:55:53;1.88;;;1.60;;
64011;SDS011;50211;52.768;12.124;2022-10-16T05:58:20;2.53;;;1.88;;
64011;SDS011;50211;52.768;12.124;2022-10-16T06:00:57;2.70;;;1.40;;
64011;SDS011;50211;52.768;12.124;2022-10-16T06:03:24;3.30;;;1.20;;
64011;SDS011;50211;52.768;12.124;2022-10-16T06:05:50;3.17;;;1.88;;
64011;SDS011;50211;52.768;12.124;2022-10-16T06:08:17;2.13;;;1.92;;
64011;SDS011;50211;52.768;12.124;2022-10-16T06:10:43;6.43;;;1.65;;
64011;SDS011;50211;52.768;12.124;2022-10-16T06:13:10;1.67;;;1.58;;
64011;SDS011;50211;52.768;12.124;2022-10-16T06:15:36;3.17;;;1.63;;
64011;SDS011;50211;52.768;12.124;2022-10-16T06:18:03;4.95;;;1.85;;
64011;SDS011;50211;52.768;12.124;2022-10-16T06:20:29;2.25;;;1.83;;
64011;SDS011;50211;52.768;12.124;2022-10-16T06:22:55;2.70;;;1.85;;
64011;SDS011;50211;52.768;12.124;2022-10-16T06:25:21;5.10;;;1.83;;
64011;SDS011;50211;52.768;12.124;2022-10-16T06:27:47;2.58;;;1.63;;
64011;SDS011;50211;52.768;12.124;2022-10-16T06:30:12;3.05;;;1.75;;
64011;SDS011;50211;52.768;12.124;2022-10-16T06:32:38;1.95;;;1.60;;
64011;SDS011;50211;52.768;12.124;2022-10-16T06:35:03;3.70;;;1.60;;
64011;SDS011;50211;52.768;12.124;2022-10-16T06:37:29;2.05;;;1.60;;
64011;SDS011;50211;52.768;12.124;2022-10-16T06:39:55;2.13;;;1.85;;
64011;SDS011;50211;52.768;12.124;2022-10-16T06:42:21;2.80;;;1.75;;
64011;SDS011;50211;52.768;12.124;2022-10-16T06:44:46;2.00;;;1.80;;
64011;SDS011;50211;52.768;12.124;2022-10-16T06:47:12;5.13;;;2.67;;
64011;SDS011;50211;52.768;12.124;2022-10-16T06:49:37;10.25;;;3.22;;
64011;SDS011;50211;52.768;12.124;2022-10-16T06:52:03;5.00;;;2.22;;
64011;SDS011;50211;52.768;12.124;2022-10-16T06:54:28;2.65;;;2.20;;
64011;SDS011;50211;52.768;12.124;2022-10-16T06:56:54;3.35;;;1.77;;
64011;SDS011;50211;52.768;12.124;2022-10-16T06:59:23;3.85;;;1.80;;
64011;SDS011;50211;52.768;12.124;2022-10-16T07:01:48;3.28;;;2.42;;
64011;SDS011;50211;52.768;12.124;2022-10-16T07:04:14;4.55;;;1.88;;
64011;SDS011;50211;52.768;12.124;2022-10-16T07:06:39;3.40;;;1.77;;
64011;SDS011;50211;52.768;12.124;2022-10-16T07:09:06;5.93;;;3.60;;
64011;SDS011;50211;52.768;12.124;2022-10-16T07:11:34;5.65;;;2.20;;
64011;SDS011;50211;52.768;12.124;2022-10-16T07:13:59;6.80;;;5.30;;
64011;SDS011;50211;52.768;12.124;2022-10-16T07:16:26;3.47;;;2.63;;
64011;SDS011;50211;52.768;12.124;2022-10-16T07:18:53;4.28;;;2.85;;
64011;SDS011;50211;52.768;12.124;2022-10-16T07:21:24;7.05;;;4.65;;
64011;SDS011;50211;52.768;12.124;2022-10-16T07:23:51;5.80;;;3.42;;
64011;SDS011;50211;52.768;12.124;2022-10-16T07:26:18;5.00;;;2.85;;
64011;SDS011;50211;52.768;12.124;2022-10-16T07:28:43;3.63;;;3.03;;
64011;SDS011;50211;52.768;12.124;2022-10-16T07:31:10;3.13;;;2.67;;
64011;SDS011;50211;52.768;12.124;2022-10-16T07:33:38;7.60;;;3.90;;
64011;SDS011;50211;52.768;12.124;2022-10-16T07:36:04;5.47;;;2.63;;
64011;SDS011;50211;52.768;12.124;2022-10-16T07:38:30;4.78;;;2.80;;
64011;SDS011;50211;52.768;12.124;2022-10-16T07:40:56;6.22;;;2.60;;
64011;SDS011;50211;52.768;12.124;2022-10-16T07:43:27;6.57;;;3.90;;
64011;SDS011;50211;52.768;12.124;2022-10-16T07:45:52;3.90;;;1.83;;
64011;SDS011;50211;52.768;12.124;2022-10-16T07:48:19;4.28;;;2.05;;
64011;SDS011;50211;52.768;12.124;2022-10-16T07:50:45;4.63;;;2.85;;
64011;SDS011;50211;52.768;12.124;2022-10-16T07:53:11;6.25;;;2.58;;
64011;SDS011;50211;52.768;12.124;2022-10-16T07:55:37;6.07;;;2.88;;
64011;SDS011;50211;52.768;12.124;2022-10-16T07:58:03;4.85;;;1.65;;
64011;SDS011;50211;52.768;12.124;2022-10-16T08:00:29;5.25;;;2.42;;
64011;SDS011;50211;52.768;12.124;2022-10-16T08:02:54;4.25;;;2.20;;
64011;SDS011;50211;52.768;12.124;2022-10-16T08:05:21;3.67;;;1.40;;
64011;SDS011;50211;52.768;12.124;2022-10-16T08:07:50;3.05;;;1.80;;
64011;SDS011;50211;52.768;12.124;2022-10-16T08:10:16;4.82;;;2.15;;
64011;SDS011;50211;52.768;12.124;2022-10-16T08:12:42;3.00;;;1.48;;
64011;SDS011;50211;52.768;12.124;2022-10-16T08:15:08;1.25;;;1.13;;
64011;SDS011;50211;52.768;12.124;2022-10-16T08:17:34;2.30;;;1.50;;
64011;SDS011;50211;52.768;12.124;2022-10-16T08:19:59;2.95;;;1.10;;
64011;SDS011;50211;52.768;12.124;2022-10-16T08:22:25;3.35;;;1.60;;
64011;SDS011;50211;52.768;12.124;2022-10-16T08:24:51;1.83;;;1.15;;
64011;SDS011;50211;52.768;12.124;2022-10-16T08:27:16;2.47;;;1.15;;
64011;SDS011;50211;52.768;12.124;2022-10-16T08:29:42;1.60;;;1.30;;
64011;SDS011;50211;52.768;12.124;2022-10-16T08:32:07;10.13;;;2.90;;
64011;SDS011;50211;52.768;12.124;2022-10-16T08:34:33;2.67;;;1.45;;
64011;SDS011;50211;52.768;12.124;2022-10-16T08:36:59;3.65;;;1.20;;
64011;SDS011;50211;52.768;12.124;2022-10-16T08:39:24;7.53;;;1.30;;
64011;SDS011;50211;52.768;12.124;2022-10-16T08:45:02;2.47;;;1.20;;
64011;SDS011;50211;52.768;12.124;2022-10-16T08:47:35;1.30;;;1.05;;
64011;SDS011;50211;52.768;12.124;2022-10-16T08:50:17;2.53;;;1.60;;
64011;SDS011;50211;52.768;12.124;2022-10-16T08:52:49;3.20;;;1.60;;
64011;SDS011;50211;52.768;12.124;2022-10-16T08:58:08;2.92;;;1.40;;
64011;SDS011;50211;52.768;12.124;2022-10-16T09:00:56;3.35;;;1.40;;
64011;SDS011;50211;52.768;12.124;2022-10-16T09:06:07;1.52;;;1.40;;
64011;SDS011;50211;52.768;12.124;2022-10-16T09:08:55;4.70;;;2.03;;
64011;SDS011;50211;52.768;12.124;2022-10-16T09:11:53;4.32;;;2.15;;
64011;SDS011;50211;52.768;12.124;2022-10-16T09:22:35;16.17;;;6.20;;
64011;SDS011;50211;52.768;12.124;2022-10-16T09:25:04;10.35;;;2.33;;
64011;SDS011;50211;52.768;12.124;2022-10-16T09:27:39;2.95;;;1.17;;
64011;SDS011;50211;52.768;12.124;2022-10-16T09:30:12;7.13;;;2.92;;
64011;SDS011;50211;52.768;12.124;2022-10-16T09:32:40;1.20;;;0.90;;
64011;SDS011;50211;52.768;12.124;2022-10-16T09:35:13;3.30;;;0.88;;
64011;SDS011;50211;52.768;12.124;2022-10-16T09:37:45;4.47;;;1.80;;
64011;SDS011;50211;52.768;12.124;2022-10-16T09:40:24;0.80;;;0.80;;
64011;SDS011;50211;52.768;12.124;2022-10-16T09:42:57;1.83;;;0.90;;
64011;SDS011;50211;52.768;12.124;2022-10-16T09:45:36;1.85;;;1.02;;
64011;SDS011;50211;52.768;12.124;2022-10-16T09:48:09;4.00;;;1.75;;
64011;SDS011;50211;52.768;12.124;2022-10-16T09:50:36;1.63;;;0.98;;
64011;SDS011;50211;52.768;12.124;2022-10-16T09:53:02;1.73;;;1.10;;
64011;SDS011;50211;52.768;12.124;2022-10-16T09:55:35;3.10;;;1.35;;
64011;SDS011;50211;52.768;12.124;2022-10-16T09:58:01;2.00;;;0.95;;
64011;SDS011;50211;52.768;12.124;2022-10-16T10:00:26;6.82;;;1.30;;
64011;SDS011;50211;52.768;12.124;2022-10-16T10:02:52;1.02;;;0.88;;
64011;SDS011;50211;52.768;12.124;2022-10-16T10:07:59;2.03;;;1.20;;
64011;SDS011;50211;52.768;12.124;2022-10-16T10:10:32;4.10;;;1.35;;
64011;SDS011;50211;52.768;12.124;2022-10-16T10:12:59;2.50;;;1.73;;
64011;SDS011;50211;52.768;12.124;2022-10-16T10:15:25;2.60;;;0.90;;
64011;SDS011;50211;52.768;12.124;2022-10-16T10:17:55;1.17;;;0.75;;
64011;SDS011;50211;52.768;12.124;2022-10-16T10:20:32;1.35;;;0.55;;
64011;SDS011;50211;52.768;12.124;2022-10-16T10:23:00;0.95;;;0.70;;
64011;SDS011;50211;52.768;12.124;2022-10-16T10:31:25;0.90;;;0.65;;
64011;SDS011;50211;52.768;12.124;2022-10-16T10:37:05;0.70;;;0.70;;
64011;SDS011;50211;52.768;12.124;2022-10-16T10:40:13;1.83;;;0.70;;
64011;SDS011;50211;52.768;12.124;2022-10-16T10:43:04;1.15;;;0.70;;
64011;SDS011;50211;52.768;12.124;2022-10-16T10:45:43;1.05;;;0.60;;
64011;SDS011;50211;52.768;12.124;2022-10-16T10:48:19;0.60;;;0.60;;
64011;SDS011;50211;52.768;12.124;2022-10-16T10:51:10;0.82;;;0.60;;
64011;SDS011;50211;52.768;12.124;2022-10-16T10:53:51;1.15;;;0.68;;
64011;SDS011;50211;52.768;12.124;2022-10-16T10:59:39;1.70;;;0.40;;
64011;SDS011;50211;52.768;12.124;2022-10-16T11:02:37;0.75;;;0.40;;
64011;SDS011;50211;52.768;12.124;2022-10-16T11:05:13;2.90;;;0.47;;
64011;SDS011;50211;52.768;12.124;2022-10-16T11:07:52;1.30;;;0.47;;
64011;SDS011;50211;52.768;12.124;2022-10-16T11:13:15;0.60;;;0.40;;
64011;SDS011;50211;52.768;12.124;2022-10-16T11:15:57;2.78;;;0.60;;
64011;SDS011;50211;52.768;12.124;2022-10-16T11:18:37;1.30;;;0.80;;
64011;SDS011;50211;52.768;12.124;2022-10-16T11:21:14;2.80;;;0.50;;
64011;SDS011;50211;52.768;12.124;2022-10-16T11:23:46;1.00;;;0.57;;
64011;SDS011;50211;52.768;12.124;2022-10-16T11:26:25;1.15;;;0.60;;
64011;SDS011;50211;52.768;12.124;2022-10-16T11:28:54;0.55;;;0.52;;
64011;SDS011;50211;52.768;12.124;2022-10-16T11:31:38;1.52;;;0.77;;
64011;SDS011;50211;52.768;12.124;2022-10-16T11:34:12;1.77;;;0.50;;
64011;SDS011;50211;52.768;12.124;2022-10-16T11:36:52;0.30;;;0.30;;
64011;SDS011;50211;52.768;12.124;2022-10-16T11:39:30;0.40;;;0.40;;
64011;SDS011;50211;52.768;12.124;2022-10-16T11:42:04;2.97;;;0.50;;
64011;SDS011;50211;52.768;12.124;2022-10-16T11:50:36;0.60;;;0.60;;
64011;SDS011;50211;52.768;12.124;2022-10-16T11:56:00;2.47;;;0.65;;
64011;SDS011;50211;52.768;12.124;2022-10-16T11:58:33;0.50;;;0.50;;
64011;SDS011;50211;52.768;12.124;2022-10-16T12:01:17;0.95;;;0.60;;
64011;SDS011;50211;52.768;12.124;2022-10-16T12:04:04;1.55;;;0.40;;
64011;SDS011;50211;52.768;12.124;2022-10-16T12:09:02;1.35;;;0.80;;
64011;SDS011;50211;52.768;12.124;2022-10-16T12:16:38;1.10;;;0.50;;
64011;SDS011;50211;52.768;12.124;2022-10-16T12:19:21;1.48;;;0.43;;
64011;SDS011;50211;52.768;12.124;2022-10-16T12:21:48;1.55;;;0.50;;
64011;SDS011;50211;52.768;12.124;2022-10-16T12:24:32;1.88;;;0.50;;
64011;SDS011;50211;52.768;12.124;2022-10-16T12:26:59;0.95;;;0.60;;
64011;SDS011;50211;52.768;12.124;2022-10-16T12:29:41;5.72;;;0.60;;
64011;SDS011;50211;52.768;12.124;2022-10-16T12:32:26;1.77;;;0.70;;
64011;SDS011;50211;52.768;12.124;2022-10-16T12:34:55;1.92;;;0.80;;
64011;SDS011;50211;52.768;12.124;2022-10-16T12:37:26;0.70;;;0.60;;
64011;SDS011;50211;52.768;12.124;2022-10-16T12:39:55;1.85;;;0.70;;
64011;SDS011;50211;52.768;12.124;2022-10-16T12:42:23;1.33;;;0.63;;
64011;SDS011;50211;52.768;12.124;2022-10-16T12:44:58;1.67;;;0.45;;
64011;SDS011;50211;52.768;12.124;2022-10-16T12:49:56;0.75;;;0.75;;
64011;SDS011;50211;52.768;12.124;2022-10-16T12:52:26;1.38;;;1.27;;
64011;SDS011;50211;52.768;12.124;2022-10-16T12:54:55;0.88;;;0.60;;
64011;SDS011;50211;52.768;12.124;2022-10-16T13:00:26;0.47;;;0.47;;
64011;SDS011;50211;52.768;12.124;2022-10-16T13:03:04;1.48;;;0.73;;
64011;SDS011;50211;52.768;12.124;2022-10-16T13:11:37;2.08;;;0.70;;
64011;SDS011;50211;52.768;12.124;2022-10-16T13:14:26;0.60;;;0.50;;
64011;SDS011;50211;52.768;12.124;2022-10-16T13:17:08;0.80;;;0.70;;
64011;SDS011;50211;52.768;12.124;2022-10-16T13:27:46;0.98;;;0.50;;
64011;SDS011;50211;52.768;12.124;2022-10-16T13:30:27;2.97;;;0.60;;
64011;SDS011;50211;52.768;12.124;2022-10-16T13:33:02;1.98;;;0.70;;
64011;SDS011;50211;52.768;12.124;2022-10-16T13:35:33;3.92;;;1.10;;
64011;SDS011;50211;52.768;12.124;2022-10-16T13:38:11;3.63;;;0.98;;
64011;SDS011;50211;52.768;12.124;2022-10-16T13:43:16;0.88;;;0.60;;
64011;SDS011;50211;52.768;12.124;2022-10-16T13:45:55;1.75;;;0.70;;
64011;SDS011;50211;52.768;12.124;2022-10-16T13:48:22;4.47;;;0.80;;
64011;SDS011;50211;52.768;12.124;2022-10-16T13:50:57;5.70;;;2.05;;
64011;SDS011;50211;52.768;12.124;2022-10-16T13:53:27;1.13;;;0.90;;
64011;SDS011;50211;52.768;12.124;2022-10-16T13:55:56;1.20;;;0.68;;
64011;SDS011;50211;52.768;12.124;2022-10-16T13:58:21;1.65;;;0.93;;
64011;SDS011;50211;52.768;12.124;2022-10-16T14:00:57;2.20;;;0.75;;
64011;SDS011;50211;52.768;12.124;2022-10-16T14:03:24;0.73;;;0.73;;
64011;SDS011;50211;52.768;12.124;2022-10-16T14:05:54;4.68;;;0.68;;
64011;SDS011;50211;52.768;12.124;2022-10-16T14:08:23;4.45;;;0.77;;
64011;SDS011;50211;52.768;12.124;2022-10-16T14:10:50;1.13;;;0.30;;
64011;SDS011;50211;52.768;12.124;2022-10-16T14:13:19;1.15;;;0.40;;
64011;SDS011;50211;52.768;12.124;2022-10-16T14:15:51;0.65;;;0.50;;
64011;SDS011;50211;52.768;12.124;2022-10-16T14:18:21;1.00;;;0.45;;
64011;SDS011;50211;52.768;12.124;2022-10-16T14:20:49;1.95;;;0.50;;
64011;SDS011;50211;52.768;12.124;2022-10-16T14:25:48;0.60;;;0.32;;
64011;SDS011;50211;52.768;12.124;2022-10-16T14:28:17;2.63;;;0.40;;
64011;SDS011;50211;52.768;12.124;2022-10-16T14:30:54;1.27;;;0.52;;
64011;SDS011;50211;52.768;12.124;2022-10-16T14:33:22;1.45;;;0.50;;
64011;SDS011;50211;52.768;12.124;2022-10-16T14:36:02;0.30;;;0.30;;
64011;SDS011;50211;52.768;12.124;2022-10-16T14:38:34;2.28;;;0.60;;
64011;SDS011;50211;52.768;12.124;2022-10-16T14:41:00;1.88;;;0.43;;
64011;SDS011;50211;52.768;12.124;2022-10-16T14:43:31;0.82;;;0.40;;
64011;SDS011;50211;52.768;12.124;2022-10-16T14:45:59;1.75;;;0.43;;
64011;SDS011;50211;52.768;12.124;2022-10-16T14:48:26;0.50;;;0.47;;
64011;SDS011;50211;52.768;12.124;2022-10-16T14:50:53;2.33;;;0.50;;
64011;SDS011;50211;52.768;12.124;2022-10-16T14:53:18;1.48;;;0.43;;
64011;SDS011;50211;52.768;12.124;2022-10-16T14:55:44;1.65;;;0.50;;
64011;SDS011;50211;52.768;12.124;2022-10-16T15:00:42;3.60;;;0.40;;
64011;SDS011;50211;52.768;12.124;2022-10-16T15:03:07;3.13;;;0.75;;
64011;SDS011;50211;52.768;12.124;2022-10-16T15:05:33;0.77;;;0.57;;
64011;SDS011;50211;52.768;12.124;2022-10-16T15:07:59;0.55;;;0.50;;
64011;SDS011;50211;52.768;12.124;2022-10-16T15:10:25;1.73;;;0.50;;
64011;SDS011;50211;52.768;12.124;2022-10-16T15:12:52;0.80;;;0.43;;
64011;SDS011;50211;52.768;12.124;2022-10-16T15:15:37;0.60;;;0.43;;
64011;SDS011;50211;52.768;12.124;2022-10-16T15:18:06;0.50;;;0.40;;
64011;SDS011;50211;52.768;12.124;2022-10-16T15:20:33;0.43;;;0.43;;
64011;SDS011;50211;52.768;12.124;2022-10-16T15:23:04;2.08;;;0.68;;
64011;SDS011;50211;52.768;12.124;2022-10-16T15:28:06;3.15;;;0.50;;
64011;SDS011;50211;52.768;12.124;2022-10-16T15:30:33;1.88;;;0.50;;
64011;SDS011;50211;52.768;12.124;2022-10-16T15:32:58;3.30;;;0.60;;
64011;SDS011;50211;52.768;12.124;2022-10-16T15:35:24;1.85;;;0.75;;
64011;SDS011;50211;52.768;12.124;2022-10-16T15:37:50;1.42;;;0.52;;
64011;SDS011;50211;52.768;12.124;2022-10-16T15:40:17;0.98;;;0.75;;
64011;SDS011;50211;52.768;12.124;2022-10-16T15:42:43;1.00;;;0.80;;
64011;SDS011;50211;52.768;12.124;2022-10-16T15:45:09;2.80;;;0.60;;
64011;SDS011;50211;52.768;12.124;2022-10-16T15:47:35;2.88;;;0.55;;
64011;SDS011;50211;52.768;12.124;2022-10-16T15:50:01;1.80;;;0.50;;
64011;SDS011;50211;52.768;12.124;2022-10-16T15:52:27;1.33;;;0.32;;
64011;SDS011;50211;52.768;12.124;2022-10-16T15:54:53;1.50;;;0.60;;
64011;SDS011;50211;52.768;12.124;2022-10-16T15:57:19;1.92;;;0.70;;
64011;SDS011;50211;52.768;12.124;2022-10-16T15:59:44;1.60;;;0.47;;
64011;SDS011;50211;52.768;12.124;2022-10-16T16:02:10;4.05;;;0.63;;
64011;SDS011;50211;52.768;12.124;2022-10-16T16:04:35;1.52;;;0.60;;
64011;SDS011;50211;52.768;12.124;2022-10-16T16:07:01;4.43;;;1.15;;
64011;SDS011;50211;52.768;12.124;2022-10-16T16:09:28;1.95;;;0.50;;
64011;SDS011;50211;52.768;12.124;2022-10-16T16:11:54;1.95;;;0.93;;
64011;SDS011;50211;52.768;12.124;2022-10-16T16:14:20;18.90;;;6.20;;
64011;SDS011;50211;52.768;12.124;2022-10-16T16:16:45;6.55;;;3.30;;